sensor_id;sensor_type;location;lat;lon;timestamp;P1;durP1;ratioP1;P2;durP2;ratioP2
8958;SDS011;4514;49.476;8.484;2022-07-09T00:00:03;4.68;;;3.60;;
8958;SDS011;4514;49.476;8.484;2022-07-09T00:02:29;9.10;;;3.53;;
8958;SDS011;4514;49.476;8.484;2022-07-09T00:04:59;5.13;;;3.10;;
8958;SDS011;4514;49.476;8.484;2022-07-09T00:07:27;4.72;;;3.20;;
8958;SDS011;4514;49.476;8.484;2022-07-09T00:09:52;5.28;;;3.40;;
8958;SDS011;4514;49.476;8.484;2022-07-09T00:12:18;6.32;;;3.20;;
8958;SDS011;4514;49.476;8.484;2022-07-09T00:14:43;4.68;;;3.10;;
8958;SDS011;4514;49.476;8.484;2022-07-09T00:17:09;4.72;;;3.10;;
8958;SDS011;4514;49.476;8.484;2022-07-09T00:19:37;4.90;;;3.33;;
8958;SDS011;4514;49.476;8.484;2022-07-09T00:22:02;5.35;;;3.95;;
8958;SDS011;4514;49.476;8.484;2022-07-09T00:24:30;6.47;;;3.10;;
8958;SDS011;4514;49.476;8.484;2022-07-09T00:26:56;6.68;;;2.90;;
8958;SDS011;4514;49.476;8.484;2022-07-09T00:29:21;3.35;;;2.75;;
8958;SDS011;4514;49.476;8.484;2022-07-09T00:31:51;5.97;;;2.72;;
8958;SDS011;4514;49.476;8.484;2022-07-09T00:34:17;4.68;;;2.55;;
8958;SDS011;4514;49.476;8.484;2022-07-09T00:36:44;5.43;;;2.60;;
8958;SDS011;4514;49.476;8.484;2022-07-09T00:39:14;5.35;;;2.67;;
8958;SDS011;4514;49.476;8.484;2022-07-09T00:41:40;3.05;;;2.58;;
8958;SDS011;4514;49.476;8.484;2022-07-09T00:44:10;3.88;;;2.30;;
8958;SDS011;4514;49.476;8.484;2022-07-09T00:46:38;3.22;;;2.40;;
8958;SDS011;4514;49.476;8.484;2022-07-09T00:49:05;6.60;;;2.42;;
8958;SDS011;4514;49.476;8.484;2022-07-09T00:51:33;7.15;;;3.25;;
8958;SDS011;4514;49.476;8.484;2022-07-09T00:54:01;4.20;;;3.28;;
8958;SDS011;4514;49.476;8.484;2022-07-09T00:56:27;4.20;;;2.78;;
8958;SDS011;4514;49.476;8.484;2022-07-09T00:58:53;5.45;;;2.78;;
8958;SDS011;4514;49.476;8.484;2022-07-09T01:01:19;4.72;;;2.50;;
8958;SDS011;4514;49.476;8.484;2022-07-09T01:03:44;5.40;;;2.73;;
8958;SDS011;4514;49.476;8.484;2022-07-09T01:06:09;3.75;;;2.70;;
8958;SDS011;4514;49.476;8.484;2022-07-09T01:08:37;5.10;;;2.88;;
8958;SDS011;4514;49.476;8.484;2022-07-09T01:11:05;4.30;;;2.45;;
8958;SDS011;4514;49.476;8.484;2022-07-09T01:13:30;5.72;;;2.70;;
8958;SDS011;4514;49.476;8.484;2022-07-09T01:15:58;3.95;;;2.72;;
8958;SDS011;4514;49.476;8.484;2022-07-09T01:18:23;4.80;;;2.72;;
8958;SDS011;4514;49.476;8.484;2022-07-09T01:20:49;4.10;;;3.25;;
8958;SDS011;4514;49.476;8.484;2022-07-09T01:23:16;4.85;;;3.10;;
8958;SDS011;4514;49.476;8.484;2022-07-09T01:25:43;3.38;;;2.88;;
8958;SDS011;4514;49.476;8.484;2022-07-09T01:28:13;4.70;;;2.88;;
8958;SDS011;4514;49.476;8.484;2022-07-09T01:30:39;6.35;;;3.00;;
8958;SDS011;4514;49.476;8.484;2022-07-09T01:33:05;2.65;;;2.30;;
8958;SDS011;4514;49.476;8.484;2022-07-09T01:35:31;4.15;;;2.70;;
8958;SDS011;4514;49.476;8.484;2022-07-09T01:37:56;3.10;;;2.78;;
8958;SDS011;4514;49.476;8.484;2022-07-09T01:40:22;6.25;;;2.60;;
8958;SDS011;4514;49.476;8.484;2022-07-09T01:42:48;5.35;;;2.75;;
8958;SDS011;4514;49.476;8.484;2022-07-09T01:45:14;4.78;;;2.78;;
8958;SDS011;4514;49.476;8.484;2022-07-09T01:47:40;4.15;;;2.58;;
8958;SDS011;4514;49.476;8.484;2022-07-09T01:50:06;3.13;;;2.42;;
8958;SDS011;4514;49.476;8.484;2022-07-09T01:52:32;6.47;;;2.45;;
8958;SDS011;4514;49.476;8.484;2022-07-09T01:55:02;3.75;;;2.60;;
8958;SDS011;4514;49.476;8.484;2022-07-09T01:57:33;5.72;;;2.80;;
8958;SDS011;4514;49.476;8.484;2022-07-09T01:59:58;5.80;;;2.67;;
8958;SDS011;4514;49.476;8.484;2022-07-09T02:02:26;6.13;;;3.50;;
8958;SDS011;4514;49.476;8.484;2022-07-09T02:04:51;4.97;;;3.30;;
8958;SDS011;4514;49.476;8.484;2022-07-09T02:07:17;6.00;;;3.95;;
8958;SDS011;4514;49.476;8.484;2022-07-09T02:09:42;5.90;;;3.40;;
8958;SDS011;4514;49.476;8.484;2022-07-09T02:12:08;6.10;;;3.03;;
8958;SDS011;4514;49.476;8.484;2022-07-09T02:14:33;4.68;;;3.35;;
8958;SDS011;4514;49.476;8.484;2022-07-09T02:17:01;4.93;;;3.20;;
8958;SDS011;4514;49.476;8.484;2022-07-09T02:19:29;5.57;;;3.08;;
8958;SDS011;4514;49.476;8.484;2022-07-09T02:21:56;5.97;;;2.80;;
8958;SDS011;4514;49.476;8.484;2022-07-09T02:24:22;4.85;;;2.85;;
8958;SDS011;4514;49.476;8.484;2022-07-09T02:26:47;8.45;;;3.10;;
8958;SDS011;4514;49.476;8.484;2022-07-09T02:29:15;3.30;;;2.83;;
8958;SDS011;4514;49.476;8.484;2022-07-09T02:31:40;4.00;;;2.78;;
8958;SDS011;4514;49.476;8.484;2022-07-09T02:34:06;4.63;;;2.85;;
8958;SDS011;4514;49.476;8.484;2022-07-09T02:36:31;5.93;;;2.80;;
8958;SDS011;4514;49.476;8.484;2022-07-09T02:38:56;4.78;;;2.67;;
8958;SDS011;4514;49.476;8.484;2022-07-09T02:41:22;3.47;;;2.88;;
8958;SDS011;4514;49.476;8.484;2022-07-09T02:43:50;4.32;;;2.60;;
8958;SDS011;4514;49.476;8.484;2022-07-09T02:46:17;4.55;;;2.25;;
8958;SDS011;4514;49.476;8.484;2022-07-09T02:48:45;5.32;;;2.45;;
8958;SDS011;4514;49.476;8.484;2022-07-09T02:51:13;3.13;;;2.53;;
8958;SDS011;4514;49.476;8.484;2022-07-09T02:53:39;4.47;;;2.40;;
8958;SDS011;4514;49.476;8.484;2022-07-09T02:56:04;6.72;;;2.50;;
8958;SDS011;4514;49.476;8.484;2022-07-09T02:58:32;4.60;;;2.40;;
8958;SDS011;4514;49.476;8.484;2022-07-09T03:01:00;3.10;;;2.55;;
8958;SDS011;4514;49.476;8.484;2022-07-09T03:03:25;3.00;;;2.40;;
8958;SDS011;4514;49.476;8.484;2022-07-09T03:05:51;6.35;;;3.22;;
8958;SDS011;4514;49.476;8.484;2022-07-09T03:08:17;4.78;;;2.63;;
8958;SDS011;4514;49.476;8.484;2022-07-09T03:10:43;4.38;;;2.63;;
8958;SDS011;4514;49.476;8.484;2022-07-09T03:13:08;4.13;;;2.83;;
8958;SDS011;4514;49.476;8.484;2022-07-09T03:15:33;3.28;;;2.70;;
8958;SDS011;4514;49.476;8.484;2022-07-09T03:18:04;6.60;;;2.58;;
8958;SDS011;4514;49.476;8.484;2022-07-09T03:20:32;3.15;;;2.60;;
8958;SDS011;4514;49.476;8.484;2022-07-09T03:22:59;5.93;;;2.92;;
8958;SDS011;4514;49.476;8.484;2022-07-09T03:25:25;4.88;;;3.00;;
8958;SDS011;4514;49.476;8.484;2022-07-09T03:27:52;4.82;;;3.08;;
8958;SDS011;4514;49.476;8.484;2022-07-09T03:30:20;4.88;;;2.75;;
8958;SDS011;4514;49.476;8.484;2022-07-09T03:32:46;6.07;;;3.08;;
8958;SDS011;4514;49.476;8.484;2022-07-09T03:35:11;5.47;;;2.80;;
8958;SDS011;4514;49.476;8.484;2022-07-09T03:37:36;10.13;;;2.90;;
8958;SDS011;4514;49.476;8.484;2022-07-09T03:40:02;5.72;;;2.95;;
8958;SDS011;4514;49.476;8.484;2022-07-09T03:42:28;5.45;;;2.88;;
8958;SDS011;4514;49.476;8.484;2022-07-09T03:44:55;4.80;;;3.30;;
8958;SDS011;4514;49.476;8.484;2022-07-09T03:47:21;6.83;;;3.53;;
8958;SDS011;4514;49.476;8.484;2022-07-09T03:49:47;9.60;;;3.28;;
8958;SDS011;4514;49.476;8.484;2022-07-09T03:52:15;5.45;;;3.33;;
8958;SDS011;4514;49.476;8.484;2022-07-09T03:54:41;6.13;;;3.58;;
8958;SDS011;4514;49.476;8.484;2022-07-09T03:57:08;6.95;;;3.10;;
8958;SDS011;4514;49.476;8.484;2022-07-09T03:59:35;3.58;;;2.97;;
8958;SDS011;4514;49.476;8.484;2022-07-09T04:02:00;8.15;;;3.40;;
8958;SDS011;4514;49.476;8.484;2022-07-09T04:04:26;3.80;;;3.10;;
8958;SDS011;4514;49.476;8.484;2022-07-09T04:06:54;5.22;;;3.00;;
8958;SDS011;4514;49.476;8.484;2022-07-09T04:09:20;4.82;;;3.10;;
8958;SDS011;4514;49.476;8.484;2022-07-09T04:11:48;6.15;;;3.38;;
8958;SDS011;4514;49.476;8.484;2022-07-09T04:14:16;6.25;;;3.50;;
8958;SDS011;4514;49.476;8.484;2022-07-09T04:16:44;6.50;;;3.22;;
8958;SDS011;4514;49.476;8.484;2022-07-09T04:19:10;6.25;;;3.13;;
8958;SDS011;4514;49.476;8.484;2022-07-09T04:21:38;4.03;;;2.92;;
8958;SDS011;4514;49.476;8.484;2022-07-09T04:24:03;5.15;;;3.05;;
8958;SDS011;4514;49.476;8.484;2022-07-09T04:26:34;4.95;;;3.22;;
8958;SDS011;4514;49.476;8.484;2022-07-09T04:28:59;6.07;;;3.17;;
8958;SDS011;4514;49.476;8.484;2022-07-09T04:31:24;5.22;;;2.80;;
8958;SDS011;4514;49.476;8.484;2022-07-09T04:33:50;4.38;;;2.95;;
8958;SDS011;4514;49.476;8.484;2022-07-09T04:36:15;5.97;;;3.50;;
8958;SDS011;4514;49.476;8.484;2022-07-09T04:38:41;4.97;;;3.28;;
8958;SDS011;4514;49.476;8.484;2022-07-09T04:41:07;4.97;;;3.30;;
8958;SDS011;4514;49.476;8.484;2022-07-09T04:43:32;5.32;;;3.15;;
8958;SDS011;4514;49.476;8.484;2022-07-09T04:45:58;5.05;;;3.80;;
8958;SDS011;4514;49.476;8.484;2022-07-09T04:48:25;4.80;;;3.22;;
8958;SDS011;4514;49.476;8.484;2022-07-09T04:50:51;3.72;;;3.30;;
8958;SDS011;4514;49.476;8.484;2022-07-09T04:53:16;6.30;;;3.67;;
8958;SDS011;4514;49.476;8.484;2022-07-09T04:55:41;5.15;;;3.55;;
8958;SDS011;4514;49.476;8.484;2022-07-09T04:58:07;4.85;;;3.47;;
8958;SDS011;4514;49.476;8.484;2022-07-09T05:00:33;7.10;;;5.13;;
8958;SDS011;4514;49.476;8.484;2022-07-09T05:02:58;5.72;;;3.40;;
8958;SDS011;4514;49.476;8.484;2022-07-09T05:05:26;8.77;;;4.10;;
8958;SDS011;4514;49.476;8.484;2022-07-09T05:07:52;5.97;;;3.50;;
8958;SDS011;4514;49.476;8.484;2022-07-09T05:10:19;5.75;;;3.47;;
8958;SDS011;4514;49.476;8.484;2022-07-09T05:12:45;6.30;;;3.70;;
8958;SDS011;4514;49.476;8.484;2022-07-09T05:15:11;4.72;;;3.25;;
8958;SDS011;4514;49.476;8.484;2022-07-09T05:17:37;7.57;;;6.05;;
8958;SDS011;4514;49.476;8.484;2022-07-09T05:20:03;5.70;;;3.85;;
8958;SDS011;4514;49.476;8.484;2022-07-09T05:22:33;5.80;;;3.60;;
8958;SDS011;4514;49.476;8.484;2022-07-09T05:24:59;4.75;;;3.80;;
8958;SDS011;4514;49.476;8.484;2022-07-09T05:27:27;4.25;;;3.80;;
8958;SDS011;4514;49.476;8.484;2022-07-09T05:29:55;9.00;;;4.22;;
8958;SDS011;4514;49.476;8.484;2022-07-09T05:32:21;4.93;;;3.60;;
8958;SDS011;4514;49.476;8.484;2022-07-09T05:34:46;5.97;;;3.90;;
8958;SDS011;4514;49.476;8.484;2022-07-09T05:37:14;5.53;;;3.67;;
8958;SDS011;4514;49.476;8.484;2022-07-09T05:39:39;6.47;;;3.70;;
8958;SDS011;4514;49.476;8.484;2022-07-09T05:42:05;4.72;;;3.97;;
8958;SDS011;4514;49.476;8.484;2022-07-09T05:44:31;5.38;;;3.60;;
8958;SDS011;4514;49.476;8.484;2022-07-09T05:46:56;5.75;;;3.90;;
8958;SDS011;4514;49.476;8.484;2022-07-09T05:49:21;7.03;;;4.10;;
8958;SDS011;4514;49.476;8.484;2022-07-09T05:51:47;3.72;;;3.40;;
8958;SDS011;4514;49.476;8.484;2022-07-09T05:54:15;7.10;;;4.13;;
8958;SDS011;4514;49.476;8.484;2022-07-09T05:56:40;6.63;;;4.35;;
8958;SDS011;4514;49.476;8.484;2022-07-09T05:59:06;4.93;;;4.22;;
8958;SDS011;4514;49.476;8.484;2022-07-09T06:01:32;4.53;;;3.90;;
8958;SDS011;4514;49.476;8.484;2022-07-09T06:03:58;5.82;;;4.00;;
8958;SDS011;4514;49.476;8.484;2022-07-09T06:06:25;6.53;;;3.50;;
8958;SDS011;4514;49.476;8.484;2022-07-09T06:08:53;9.38;;;4.55;;
8958;SDS011;4514;49.476;8.484;2022-07-09T06:11:21;5.15;;;4.10;;
8958;SDS011;4514;49.476;8.484;2022-07-09T06:13:47;5.07;;;3.85;;
8958;SDS011;4514;49.476;8.484;2022-07-09T06:16:12;4.00;;;3.63;;
8958;SDS011;4514;49.476;8.484;2022-07-09T06:18:37;6.85;;;3.92;;
8958;SDS011;4514;49.476;8.484;2022-07-09T06:21:03;6.70;;;4.05;;
8958;SDS011;4514;49.476;8.484;2022-07-09T06:23:30;3.60;;;3.30;;
8958;SDS011;4514;49.476;8.484;2022-07-09T06:25:56;7.40;;;4.03;;
8958;SDS011;4514;49.476;8.484;2022-07-09T06:28:23;5.43;;;3.95;;
8958;SDS011;4514;49.476;8.484;2022-07-09T06:30:51;7.05;;;4.22;;
8958;SDS011;4514;49.476;8.484;2022-07-09T06:33:16;4.88;;;4.20;;
8958;SDS011;4514;49.476;8.484;2022-07-09T06:35:42;6.00;;;3.90;;
8958;SDS011;4514;49.476;8.484;2022-07-09T06:38:09;4.57;;;3.60;;
8958;SDS011;4514;49.476;8.484;2022-07-09T06:40:37;6.15;;;4.55;;
8958;SDS011;4514;49.476;8.484;2022-07-09T06:43:03;5.70;;;4.20;;
8958;SDS011;4514;49.476;8.484;2022-07-09T06:45:28;6.22;;;4.57;;
8958;SDS011;4514;49.476;8.484;2022-07-09T06:47:56;5.50;;;4.10;;
8958;SDS011;4514;49.476;8.484;2022-07-09T06:50:23;6.53;;;4.55;;
8958;SDS011;4514;49.476;8.484;2022-07-09T06:52:53;6.18;;;4.38;;
8958;SDS011;4514;49.476;8.484;2022-07-09T06:55:19;5.45;;;4.00;;
8958;SDS011;4514;49.476;8.484;2022-07-09T06:57:44;5.68;;;4.47;;
8958;SDS011;4514;49.476;8.484;2022-07-09T07:00:10;5.97;;;4.32;;
8958;SDS011;4514;49.476;8.484;2022-07-09T07:02:37;5.65;;;4.43;;
8958;SDS011;4514;49.476;8.484;2022-07-09T07:05:03;4.55;;;3.60;;
8958;SDS011;4514;49.476;8.484;2022-07-09T07:07:31;6.85;;;3.47;;
8958;SDS011;4514;49.476;8.484;2022-07-09T07:09:58;7.03;;;3.83;;
8958;SDS011;4514;49.476;8.484;2022-07-09T07:12:26;5.82;;;4.45;;
8958;SDS011;4514;49.476;8.484;2022-07-09T07:14:51;7.03;;;4.80;;
8958;SDS011;4514;49.476;8.484;2022-07-09T07:17:17;6.22;;;4.50;;
8958;SDS011;4514;49.476;8.484;2022-07-09T07:19:42;5.90;;;4.30;;
8958;SDS011;4514;49.476;8.484;2022-07-09T07:22:08;7.83;;;5.50;;
8958;SDS011;4514;49.476;8.484;2022-07-09T07:24:33;8.40;;;4.60;;
8958;SDS011;4514;49.476;8.484;2022-07-09T07:27:01;8.10;;;4.63;;
8958;SDS011;4514;49.476;8.484;2022-07-09T07:29:29;6.50;;;4.40;;
8958;SDS011;4514;49.476;8.484;2022-07-09T07:31:54;7.05;;;5.80;;
8958;SDS011;4514;49.476;8.484;2022-07-09T07:34:21;8.57;;;7.65;;
8958;SDS011;4514;49.476;8.484;2022-07-09T07:36:51;11.30;;;8.75;;
8958;SDS011;4514;49.476;8.484;2022-07-09T07:39:17;7.63;;;5.00;;
8958;SDS011;4514;49.476;8.484;2022-07-09T07:41:43;5.93;;;4.60;;
8958;SDS011;4514;49.476;8.484;2022-07-09T07:44:08;7.88;;;5.10;;
8958;SDS011;4514;49.476;8.484;2022-07-09T07:46:34;6.13;;;4.82;;
8958;SDS011;4514;49.476;8.484;2022-07-09T07:49:02;9.10;;;5.90;;
8958;SDS011;4514;49.476;8.484;2022-07-09T07:51:27;6.95;;;4.03;;
8958;SDS011;4514;49.476;8.484;2022-07-09T07:53:55;5.50;;;4.60;;
8958;SDS011;4514;49.476;8.484;2022-07-09T07:56:22;7.05;;;4.18;;
8958;SDS011;4514;49.476;8.484;2022-07-09T07:58:50;5.40;;;4.00;;
8958;SDS011;4514;49.476;8.484;2022-07-09T08:01:15;7.63;;;5.82;;
8958;SDS011;4514;49.476;8.484;2022-07-09T08:03:43;8.50;;;5.00;;
8958;SDS011;4514;49.476;8.484;2022-07-09T08:06:09;6.90;;;4.47;;
8958;SDS011;4514;49.476;8.484;2022-07-09T08:08:34;7.68;;;5.63;;
8958;SDS011;4514;49.476;8.484;2022-07-09T08:11:02;7.20;;;5.32;;
8958;SDS011;4514;49.476;8.484;2022-07-09T08:13:29;6.10;;;4.75;;
8958;SDS011;4514;49.476;8.484;2022-07-09T08:15:55;8.50;;;5.20;;
8958;SDS011;4514;49.476;8.484;2022-07-09T08:18:21;7.28;;;6.15;;
8958;SDS011;4514;49.476;8.484;2022-07-09T08:20:46;7.38;;;5.28;;
8958;SDS011;4514;49.476;8.484;2022-07-09T08:23:16;9.02;;;4.63;;
8958;SDS011;4514;49.476;8.484;2022-07-09T08:25:44;9.63;;;5.65;;
8958;SDS011;4514;49.476;8.484;2022-07-09T08:28:09;7.53;;;5.15;;
8958;SDS011;4514;49.476;8.484;2022-07-09T08:30:37;8.93;;;6.30;;
8958;SDS011;4514;49.476;8.484;2022-07-09T08:33:05;12.30;;;5.65;;
8958;SDS011;4514;49.476;8.484;2022-07-09T08:35:30;6.35;;;5.68;;
8958;SDS011;4514;49.476;8.484;2022-07-09T08:38:03;7.43;;;5.78;;
8958;SDS011;4514;49.476;8.484;2022-07-09T08:40:29;6.85;;;5.10;;
8958;SDS011;4514;49.476;8.484;2022-07-09T08:43:00;6.60;;;5.90;;
8958;SDS011;4514;49.476;8.484;2022-07-09T08:45:30;10.13;;;6.30;;
8958;SDS011;4514;49.476;8.484;2022-07-09T08:47:58;7.78;;;5.00;;
8958;SDS011;4514;49.476;8.484;2022-07-09T08:50:25;7.10;;;5.80;;
8958;SDS011;4514;49.476;8.484;2022-07-09T08:52:53;7.18;;;5.20;;
8958;SDS011;4514;49.476;8.484;2022-07-09T08:55:19;8.13;;;5.28;;
8958;SDS011;4514;49.476;8.484;2022-07-09T08:57:44;7.63;;;5.60;;
8958;SDS011;4514;49.476;8.484;2022-07-09T09:00:15;8.40;;;6.20;;
8958;SDS011;4514;49.476;8.484;2022-07-09T09:02:43;5.22;;;4.65;;
8958;SDS011;4514;49.476;8.484;2022-07-09T09:05:14;7.85;;;5.60;;
8958;SDS011;4514;49.476;8.484;2022-07-09T09:07:41;6.30;;;5.70;;
8958;SDS011;4514;49.476;8.484;2022-07-09T09:10:07;7.32;;;5.28;;
8958;SDS011;4514;49.476;8.484;2022-07-09T09:12:35;6.13;;;4.47;;
8958;SDS011;4514;49.476;8.484;2022-07-09T09:15:05;4.90;;;4.20;;
8958;SDS011;4514;49.476;8.484;2022-07-09T09:17:31;7.80;;;5.38;;
8958;SDS011;4514;49.476;8.484;2022-07-09T09:19:59;7.13;;;4.47;;
8958;SDS011;4514;49.476;8.484;2022-07-09T09:22:28;10.38;;;4.28;;
8958;SDS011;4514;49.476;8.484;2022-07-09T09:24:55;5.95;;;4.35;;
8958;SDS011;4514;49.476;8.484;2022-07-09T09:27:27;10.07;;;7.35;;
8958;SDS011;4514;49.476;8.484;2022-07-09T09:29:57;6.13;;;5.50;;
8958;SDS011;4514;49.476;8.484;2022-07-09T09:32:25;6.35;;;4.07;;
8958;SDS011;4514;49.476;8.484;2022-07-09T09:34:51;6.85;;;4.47;;
8958;SDS011;4514;49.476;8.484;2022-07-09T09:37:26;4.63;;;3.38;;
8958;SDS011;4514;49.476;8.484;2022-07-09T09:39:53;5.07;;;3.38;;
8958;SDS011;4514;49.476;8.484;2022-07-09T09:42:22;5.10;;;3.83;;
8958;SDS011;4514;49.476;8.484;2022-07-09T09:44:48;5.68;;;4.00;;
8958;SDS011;4514;49.476;8.484;2022-07-09T09:47:15;5.32;;;3.25;;
8958;SDS011;4514;49.476;8.484;2022-07-09T09:49:48;4.03;;;3.28;;
8958;SDS011;4514;49.476;8.484;2022-07-09T09:52:16;5.93;;;3.33;;
8958;SDS011;4514;49.476;8.484;2022-07-09T09:54:44;4.38;;;2.90;;
8958;SDS011;4514;49.476;8.484;2022-07-09T09:57:12;5.15;;;3.25;;
8958;SDS011;4514;49.476;8.484;2022-07-09T09:59:47;6.03;;;3.05;;
8958;SDS011;4514;49.476;8.484;2022-07-09T10:02:13;4.30;;;2.67;;
8958;SDS011;4514;49.476;8.484;2022-07-09T10:04:42;4.70;;;3.22;;
8958;SDS011;4514;49.476;8.484;2022-07-09T10:07:09;5.65;;;3.10;;
8958;SDS011;4514;49.476;8.484;2022-07-09T10:09:38;4.95;;;3.20;;
8958;SDS011;4514;49.476;8.484;2022-07-09T10:12:04;6.47;;;3.10;;
8958;SDS011;4514;49.476;8.484;2022-07-09T10:14:31;4.60;;;2.97;;
8958;SDS011;4514;49.476;8.484;2022-07-09T10:17:13;4.32;;;3.03;;
8958;SDS011;4514;49.476;8.484;2022-07-09T10:19:50;4.18;;;2.97;;
8958;SDS011;4514;49.476;8.484;2022-07-09T10:22:17;5.25;;;3.00;;
8958;SDS011;4514;49.476;8.484;2022-07-09T10:24:45;3.88;;;3.13;;
8958;SDS011;4514;49.476;8.484;2022-07-09T10:27:12;4.82;;;3.30;;
8958;SDS011;4514;49.476;8.484;2022-07-09T10:29:54;4.43;;;2.97;;
8958;SDS011;4514;49.476;8.484;2022-07-09T10:32:28;3.45;;;2.50;;
8958;SDS011;4514;49.476;8.484;2022-07-09T10:37:41;4.28;;;2.50;;
8958;SDS011;4514;49.476;8.484;2022-07-09T10:42:38;4.45;;;2.50;;
8958;SDS011;4514;49.476;8.484;2022-07-09T10:45:20;6.75;;;2.60;;
8958;SDS011;4514;49.476;8.484;2022-07-09T10:47:54;3.35;;;2.30;;
8958;SDS011;4514;49.476;8.484;2022-07-09T10:50:24;2.67;;;2.10;;
8958;SDS011;4514;49.476;8.484;2022-07-09T10:52:51;5.25;;;2.17;;
8958;SDS011;4514;49.476;8.484;2022-07-09T10:55:26;7.07;;;2.60;;
8958;SDS011;4514;49.476;8.484;2022-07-09T10:57:52;3.33;;;2.38;;
8958;SDS011;4514;49.476;8.484;2022-07-09T11:00:21;3.67;;;2.25;;
8958;SDS011;4514;49.476;8.484;2022-07-09T11:05:18;4.20;;;2.38;;
8958;SDS011;4514;49.476;8.484;2022-07-09T11:07:53;4.35;;;2.80;;
8958;SDS011;4514;49.476;8.484;2022-07-09T11:10:32;6.35;;;5.05;;
8958;SDS011;4514;49.476;8.484;2022-07-09T11:13:05;4.10;;;3.00;;
8958;SDS011;4514;49.476;8.484;2022-07-09T11:15:34;4.65;;;2.72;;
8958;SDS011;4514;49.476;8.484;2022-07-09T11:18:07;4.78;;;2.80;;
8958;SDS011;4514;49.476;8.484;2022-07-09T11:20:44;4.22;;;2.03;;
8958;SDS011;4514;49.476;8.484;2022-07-09T11:23:11;4.15;;;2.50;;
8958;SDS011;4514;49.476;8.484;2022-07-09T11:25:39;4.25;;;2.67;;
8958;SDS011;4514;49.476;8.484;2022-07-09T11:28:05;4.10;;;2.45;;
8958;SDS011;4514;49.476;8.484;2022-07-09T11:30:31;4.82;;;2.25;;
8958;SDS011;4514;49.476;8.484;2022-07-09T11:33:02;5.03;;;2.35;;
8958;SDS011;4514;49.476;8.484;2022-07-09T11:35:30;2.70;;;2.00;;
8958;SDS011;4514;49.476;8.484;2022-07-09T11:37:59;2.72;;;2.10;;
8958;SDS011;4514;49.476;8.484;2022-07-09T11:40:28;5.72;;;2.55;;
8958;SDS011;4514;49.476;8.484;2022-07-09T11:42:54;3.67;;;1.90;;
8958;SDS011;4514;49.476;8.484;2022-07-09T11:45:21;3.47;;;1.60;;
8958;SDS011;4514;49.476;8.484;2022-07-09T11:47:47;2.95;;;1.85;;
8958;SDS011;4514;49.476;8.484;2022-07-09T11:50:14;2.83;;;1.60;;
8958;SDS011;4514;49.476;8.484;2022-07-09T11:52:44;3.25;;;1.52;;
8958;SDS011;4514;49.476;8.484;2022-07-09T11:55:14;2.20;;;1.70;;
8958;SDS011;4514;49.476;8.484;2022-07-09T12:00:33;2.22;;;1.63;;
8958;SDS011;4514;49.476;8.484;2022-07-09T12:03:00;5.25;;;4.68;;
8958;SDS011;4514;49.476;8.484;2022-07-09T12:05:27;5.07;;;2.92;;
8958;SDS011;4514;49.476;8.484;2022-07-09T12:07:55;2.67;;;1.90;;
8958;SDS011;4514;49.476;8.484;2022-07-09T12:10:24;4.85;;;2.20;;
8958;SDS011;4514;49.476;8.484;2022-07-09T12:12:51;1.75;;;1.65;;
8958;SDS011;4514;49.476;8.484;2022-07-09T12:15:19;3.78;;;1.90;;
8958;SDS011;4514;49.476;8.484;2022-07-09T12:17:49;1.85;;;1.60;;
8958;SDS011;4514;49.476;8.484;2022-07-09T12:20:19;1.73;;;1.42;;
8958;SDS011;4514;49.476;8.484;2022-07-09T12:22:47;3.53;;;1.90;;
8958;SDS011;4514;49.476;8.484;2022-07-09T12:25:15;3.10;;;1.70;;
8958;SDS011;4514;49.476;8.484;2022-07-09T12:27:40;4.32;;;2.00;;
8958;SDS011;4514;49.476;8.484;2022-07-09T12:30:06;3.05;;;2.55;;
8958;SDS011;4514;49.476;8.484;2022-07-09T12:32:34;5.47;;;2.00;;
8958;SDS011;4514;49.476;8.484;2022-07-09T12:35:00;5.32;;;2.17;;
8958;SDS011;4514;49.476;8.484;2022-07-09T12:37:26;2.95;;;1.70;;
8958;SDS011;4514;49.476;8.484;2022-07-09T12:39:52;2.95;;;2.00;;
8958;SDS011;4514;49.476;8.484;2022-07-09T12:42:20;3.10;;;1.80;;
8958;SDS011;4514;49.476;8.484;2022-07-09T12:44:48;3.55;;;1.80;;
8958;SDS011;4514;49.476;8.484;2022-07-09T12:47:15;5.22;;;1.80;;
8958;SDS011;4514;49.476;8.484;2022-07-09T12:49:42;1.63;;;1.50;;
8958;SDS011;4514;49.476;8.484;2022-07-09T12:52:10;3.53;;;1.58;;
8958;SDS011;4514;49.476;8.484;2022-07-09T12:54:38;2.50;;;1.90;;
8958;SDS011;4514;49.476;8.484;2022-07-09T12:57:03;2.13;;;1.77;;
8958;SDS011;4514;49.476;8.484;2022-07-09T12:59:29;1.90;;;1.60;;
8958;SDS011;4514;49.476;8.484;2022-07-09T13:01:55;2.42;;;1.70;;
8958;SDS011;4514;49.476;8.484;2022-07-09T13:04:23;4.50;;;4.10;;
8958;SDS011;4514;49.476;8.484;2022-07-09T13:06:49;1.80;;;1.70;;
8958;SDS011;4514;49.476;8.484;2022-07-09T13:09:18;4.55;;;3.95;;
8958;SDS011;4514;49.476;8.484;2022-07-09T13:11:43;3.08;;;2.22;;
8958;SDS011;4514;49.476;8.484;2022-07-09T13:14:09;4.82;;;1.30;;
8958;SDS011;4514;49.476;8.484;2022-07-09T13:16:35;1.67;;;1.58;;
8958;SDS011;4514;49.476;8.484;2022-07-09T13:19:01;1.70;;;1.35;;
8958;SDS011;4514;49.476;8.484;2022-07-09T13:21:27;1.95;;;1.40;;
8958;SDS011;4514;49.476;8.484;2022-07-09T13:23:54;1.88;;;1.25;;
8958;SDS011;4514;49.476;8.484;2022-07-09T13:26:22;4.45;;;1.35;;
8958;SDS011;4514;49.476;8.484;2022-07-09T13:28:50;3.10;;;2.80;;
8958;SDS011;4514;49.476;8.484;2022-07-09T13:31:15;3.22;;;3.03;;
8958;SDS011;4514;49.476;8.484;2022-07-09T13:33:48;5.82;;;5.30;;
8958;SDS011;4514;49.476;8.484;2022-07-09T13:36:13;2.10;;;1.90;;
8958;SDS011;4514;49.476;8.484;2022-07-09T13:38:39;2.00;;;1.90;;
8958;SDS011;4514;49.476;8.484;2022-07-09T13:41:04;1.92;;;1.50;;
8958;SDS011;4514;49.476;8.484;2022-07-09T13:43:32;2.25;;;1.42;;
8958;SDS011;4514;49.476;8.484;2022-07-09T13:45:59;1.33;;;1.10;;
8958;SDS011;4514;49.476;8.484;2022-07-09T13:48:25;1.42;;;1.30;;
8958;SDS011;4514;49.476;8.484;2022-07-09T13:50:51;3.15;;;1.35;;
8958;SDS011;4514;49.476;8.484;2022-07-09T13:53:20;1.67;;;1.50;;
8958;SDS011;4514;49.476;8.484;2022-07-09T13:55:47;2.25;;;1.38;;
8958;SDS011;4514;49.476;8.484;2022-07-09T13:58:13;2.47;;;1.60;;
8958;SDS011;4514;49.476;8.484;2022-07-09T14:00:39;3.55;;;1.63;;
8958;SDS011;4514;49.476;8.484;2022-07-09T14:03:04;6.15;;;5.63;;
8958;SDS011;4514;49.476;8.484;2022-07-09T14:05:30;3.47;;;2.60;;
8958;SDS011;4514;49.476;8.484;2022-07-09T14:07:55;2.05;;;1.10;;
8958;SDS011;4514;49.476;8.484;2022-07-09T14:10:21;1.50;;;1.40;;
8958;SDS011;4514;49.476;8.484;2022-07-09T14:12:49;2.00;;;1.35;;
8958;SDS011;4514;49.476;8.484;2022-07-09T14:15:15;3.30;;;1.50;;
8958;SDS011;4514;49.476;8.484;2022-07-09T14:17:48;2.20;;;1.27;;
8958;SDS011;4514;49.476;8.484;2022-07-09T14:20:13;1.50;;;1.25;;
8958;SDS011;4514;49.476;8.484;2022-07-09T14:22:39;1.70;;;1.60;;
8958;SDS011;4514;49.476;8.484;2022-07-09T14:25:09;2.10;;;1.60;;
8958;SDS011;4514;49.476;8.484;2022-07-09T14:27:34;1.52;;;1.42;;
8958;SDS011;4514;49.476;8.484;2022-07-09T14:30:00;1.60;;;1.50;;
8958;SDS011;4514;49.476;8.484;2022-07-09T14:32:25;2.92;;;2.72;;
8958;SDS011;4514;49.476;8.484;2022-07-09T14:34:55;2.97;;;2.65;;
8958;SDS011;4514;49.476;8.484;2022-07-09T14:37:21;6.05;;;5.55;;
8958;SDS011;4514;49.476;8.484;2022-07-09T14:39:46;1.92;;;1.45;;
8958;SDS011;4514;49.476;8.484;2022-07-09T14:42:14;1.77;;;1.67;;
8958;SDS011;4514;49.476;8.484;2022-07-09T14:44:40;1.98;;;1.80;;
8958;SDS011;4514;49.476;8.484;2022-07-09T14:47:05;3.08;;;2.10;;
8958;SDS011;4514;49.476;8.484;2022-07-09T14:49:33;1.65;;;1.50;;
8958;SDS011;4514;49.476;8.484;2022-07-09T14:52:00;2.65;;;1.58;;
8958;SDS011;4514;49.476;8.484;2022-07-09T14:54:30;5.22;;;4.10;;
8958;SDS011;4514;49.476;8.484;2022-07-09T14:57:03;3.85;;;3.20;;
8958;SDS011;4514;49.476;8.484;2022-07-09T14:59:29;3.15;;;2.67;;
8958;SDS011;4514;49.476;8.484;2022-07-09T15:01:54;5.18;;;4.68;;
8958;SDS011;4514;49.476;8.484;2022-07-09T15:04:19;6.50;;;4.22;;
8958;SDS011;4514;49.476;8.484;2022-07-09T15:06:45;3.80;;;2.75;;
8958;SDS011;4514;49.476;8.484;2022-07-09T15:09:10;4.55;;;2.72;;
8958;SDS011;4514;49.476;8.484;2022-07-09T15:11:38;2.03;;;1.90;;
8958;SDS011;4514;49.476;8.484;2022-07-09T15:14:08;4.30;;;1.80;;
8958;SDS011;4514;49.476;8.484;2022-07-09T15:16:33;3.45;;;3.08;;
8958;SDS011;4514;49.476;8.484;2022-07-09T15:19:01;3.40;;;3.10;;
8958;SDS011;4514;49.476;8.484;2022-07-09T15:21:29;8.55;;;6.38;;
8958;SDS011;4514;49.476;8.484;2022-07-09T15:23:56;11.05;;;9.98;;